Latest Coastal Weather Observations for Merimbula

IDN60701

Issued at 1:31 pm EST Wednesday 25 May 2016 (issued every 10 minutes, with the page automatically refreshed every 10 minutes)

About coastal observations | Map of coastal stations | Coastal observations for NSW | Marine services | Other Formats
Station Details ID: 069147 Name: MERIMBULA AIRPORT AWS Lat: -36.91 Lon: 149.90 Height: 1.5 m
Data from the previous 72 hours. | See also: Recent months at Merimbula
Date/Time
EST
Temp

°C
Wind Pressure Rain
since 9am
mm
Weather Cloud Vis
km
Sea
Height
m
Swell
Dir
 
Speed
knots
Gust
knots
hPa Trend Height
m
Period
s
Dir
25/01:30pm 15.3 NE 5 8 1012.8 - 0.0 - - 10 - - - -
25/01:00pm 15.6 NE 6 9 1013.3 - 0.0 - - 10 - - - -
25/12:30pm 17.2 NE 6 11 1013.4 - 0.0 - - 10 - - - -
25/12:00pm 15.8 E 6 9 1014.1 - 0.0 - - 10 - - - -
25/11:30am 16.1 E 6 8 1014.8 - 0.0 - - 10 - - - -
25/11:00am 15.9 ENE 4 7 1015.3 - 0.0 - - 10 - - - -
25/10:30am 15.0 CALM 0 0 1015.7 - 0.0 - - 10 - - - -
25/10:00am 13.7 CALM 0 0 1015.9 - 0.0 - - 10 - - - -
25/09:30am 12.5 NNW 5 6 1016.2 - 0.0 - - 10 - - - -
25/09:00am 11.0 CALM 0 0 1016.6 - 0.0 - - 10 - - - -
25/08:30am 9.0 WNW 3 5 1016.7 - 0.0 - - 10 - - - -
25/08:00am 7.5 NNW 5 7 1016.8 - 0.0 - - 10 - - - -
25/07:30am 7.0 NNW 5 9 1016.8 - 0.0 - - 10 - - - -
25/07:00am 6.7 NNW 7 9 1016.7 - 0.0 - - 10 - - - -
25/06:30am 5.7 NNW 4 6 1016.7 - 0.0 - - 10 - - - -
25/06:00am 5.7 W 1 4 1016.3 - 0.0 - - 10 - - - -
25/05:30am 6.4 NW 4 6 1016.1 - 0.0 - - 10 - - - -
25/05:00am 6.5 NW 4 6 1016.1 - 0.0 - - 10 - - - -
25/04:30am 7.4 NNW 6 7 1016.0 - 0.0 - - 10 - - - -
25/04:00am 7.5 NW 7 10 1015.8 - 0.0 - - 10 - - - -
25/03:30am 7.9 NNW 5 8 1015.9 - 0.0 - - 10 - - - -
25/03:00am 8.2 NNW 4 7 1015.8 - 0.0 - - 10 - - - -
25/02:30am 7.8 CALM 0 0 1015.8 - 0.0 - - 10 - - - -
25/02:00am 9.5 NW 7 8 1016.1 - 0.0 - Partly cloudy 10 - - - -
25/01:30am 11.0 WNW 6 11 1016.0 - 0.0 - - 10 - - - -
25/01:00am 12.4 W 5 9 1016.0 - 0.0 - Partly cloudy 10 - - - -
25/12:30am 13.3 WSW 7 11 1016.1 - 0.0 - - 10 - - - -
25/12:00am 13.6 WSW 9 15 1016.2 - 0.0 - - 10 - - - -
 
Date/Time
EST
Temp

°C
Wind Pressure Rain
since 9am
mm
Weather Cloud Vis
km
Sea
Height
m
Swell
Dir
 
Speed
knots
Gust
knots
hPa Trend Height
m
Period
s
Dir
24/11:30pm 13.2 SW 7 11 1016.6 - 0.0 - Partly cloudy 10 - - - -
24/11:00pm 13.5 SSW 9 13 1016.7 - 0.0 - Cloudy 10 - - - -
24/10:30pm 13.4 SSW 6 12 1016.6 - 0.0 - Cloudy 10 - - - -
24/10:00pm 13.2 SSW 5 9 1016.7 - 0.0 - Cloudy 10 - - - -
24/09:30pm 13.3 SW 8 12 1016.5 - 0.0 - Partly cloudy 10 - - - -
24/09:00pm 13.6 WSW 10 15 1016.2 - 0.0 - - 10 - - - -
24/08:30pm 13.8 SW 13 21 1016.2 - 0.0 - - 10 - - - -
24/08:00pm 13.9 WSW 11 18 1015.8 - 0.0 - - 10 - - - -
24/07:30pm 13.1 SW 8 15 1015.9 - 0.0 - - 10 - - - -
24/07:00pm 12.8 SW 5 9 1015.6 - 0.0 - - 10 - - - -
24/06:30pm 13.0 SW 5 10 1015.4 - 0.0 - - 10 - - - -
24/06:00pm 13.6 WSW 7 14 1015.0 - 0.0 - Mostly clear 10 - - - -
24/05:30pm 14.2 SW 6 11 1014.8 - 0.0 - Partly cloudy 10 - - - -
24/05:00pm 14.7 SW 7 15 1014.7 - 0.0 - Partly cloudy 10 - - - -
24/04:30pm 15.3 SW 8 14 1014.5 - 0.0 - Partly cloudy 10 - - - -
24/04:00pm 15.9 SW 11 16 1014.4 - 0.0 - Partly cloudy 10 - - - -
24/03:30pm 16.0 SW 13 24 1014.3 - 0.0 - Partly cloudy 10 - - - -
24/03:00pm 16.2 WSW 13 25 1014.5 - 0.0 - Partly cloudy 10 - - - -
24/02:49pm 16.7 SW 15 27 1014.4 - 0.0 - Partly cloudy 10 - - - -
24/02:30pm 16.9 WSW 13 20 1014.2 - 0.0 - Partly cloudy 10 - - - -
24/02:05pm 16.7 SW 15 29 1014.0 - 0.0 - Partly cloudy 10 - - - -
24/02:00pm 17.1 WSW 13 19 1013.9 - 0.0 - Partly cloudy 10 - - - -
24/01:30pm 17.7 SW 15 31 1013.4 - 0.0 - - 10 - - - -
24/01:00pm 17.0 SW 16 26 1013.4 - 0.0 - Partly cloudy 10 - - - -
24/12:57pm 17.3 SW 15 26 1013.4 - 0.0 - Partly cloudy 10 - - - -
24/12:30pm 17.8 SW 11 19 1013.3 - 0.0 - Partly cloudy 10 - - - -
24/12:00pm 18.3 WSW 14 23 1013.7 - 0.0 - Mostly clear 10 - - - -
24/11:30am 17.8 WSW 11 19 1013.8 - 0.0 - Partly cloudy 10 - - - -
24/11:00am 17.8 W 12 21 1014.2 - 0.0 - - 10 - - - -
24/10:30am 17.0 WSW 16 26 1014.6 - 0.0 - - 10 - - - -
24/10:26am 16.9 WSW 16 26 1014.7 - 0.0 - - 10 - - - -
24/10:00am 16.5 WSW 11 18 1014.9 - 0.0 - - 10 - - - -
24/09:30am 15.8 WSW 11 17 1015.0 - 0.0 - - 10 - - - -
24/09:00am 14.8 W 10 16 1015.2 - 0.2 - - 10 - - - -
24/08:30am 14.2 W 11 17 1015.3 - 0.2 - - 10 - - - -
24/08:00am 12.9 WNW 9 13 1015.4 - 0.2 - - 10 - - - -
24/07:30am 11.4 WNW 8 12 1015.4 - 0.2 - - 10 - - - -
24/07:00am 10.9 WNW 8 11 1015.2 - 0.2 - - 10 - - - -
24/06:30am 10.9 W 8 12 1015.2 - 0.2 - - 10 - - - -
24/06:00am 10.8 WNW 9 12 1015.0 - 0.2 - - 10 - - - -
24/05:30am 10.9 WNW 10 13 1014.8 - 0.2 - - 10 - - - -
24/05:00am 9.5 WNW 8 9 1015.0 - 0.2 - - 10 - - - -
24/04:30am 8.7 NW 7 10 1014.9 - 0.2 - - 10 - - - -
24/04:00am 6.1 WNW 5 7 1015.1 - 0.2 - - 10 - - - -
24/03:30am 5.4 CALM 0 0 1015.2 - 0.2 - - 10 - - - -
24/03:00am 5.8 CALM 0 0 1015.4 - 0.2 - - 10 - - - -
24/02:30am 6.8 CALM 0 0 1015.6 - 0.2 - - 10 - - - -
24/02:00am 8.7 CALM 0 2 1015.5 - 0.2 - - 10 - - - -
24/01:30am 11.0 WNW 5 9 1015.6 - 0.2 - - 10 - - - -
24/01:00am 11.6 WNW 5 9 1015.6 - 0.2 - Partly cloudy 10 - - - -
24/12:30am 11.1 WNW 6 9 1015.7 - 0.2 - - 10 - - - -
24/12:00am 9.7 NW 4 6 1015.8 - 0.2 - - 10 - - - -
 
Date/Time
EST
Temp

°C
Wind Pressure Rain
since 9am
mm
Weather Cloud Vis
km
Sea
Height
m
Swell
Dir
 
Speed
knots
Gust
knots
hPa Trend Height
m
Period
s
Dir
23/11:30pm 9.9 WNW 1 5 1016.1 - 0.2 - Partly cloudy 10 - - - -
23/11:00pm 10.7 CALM 0 0 1016.1 - 0.2 - Partly cloudy 10 - - - -
23/10:30pm 11.4 SSW 6 9 1016.1 - 0.2 - Cloudy 10 - - - -
23/10:00pm 9.8 SSW 7 10 1015.6 - 0.2 - Partly cloudy 10 - - - -
23/09:30pm 8.4 SSW 6 8 1015.3 - 0.2 - - 10 - - - -
23/09:00pm 8.7 SSW 6 8 1014.8 - 0.2 - - 10 - - - -
23/08:30pm 8.9 SSW 5 7 1014.8 - 0.2 - - 10 - - - -
23/08:00pm 9.8 N 3 5 1014.7 - 0.2 - - 10 - - - -
23/07:30pm 11.3 NW 2 5 1014.6 - 0.2 - - 10 - - - -
23/07:00pm 12.3 SSW 7 9 1014.2 - 0.2 - - 10 - - - -
23/06:30pm 13.2 S 8 10 1013.8 - 0.2 - - 10 - - - -
23/06:00pm 14.0 SSE 8 11 1013.5 - 0.2 - - 10 - - - -
23/05:30pm 14.9 SSW 6 9 1012.9 - 0.2 - Partly cloudy 10 - - - -
23/05:00pm 15.9 S 9 14 1012.3 - 0.2 - Partly cloudy 10 - - - -
23/04:30pm 18.3 SW 6 9 1011.6 - 0.2 - - 10 - - - -
23/04:00pm 19.8 WSW 6 13 1011.2 - 0.2 - - 10 - - - -
23/03:30pm 20.5 SSW 6 9 1010.9 - 0.2 - - 10 - - - -
23/03:00pm 20.9 SW 11 19 1010.8 - 0.2 - Mostly clear 10 - - - -
23/02:30pm 21.7 SW 5 10 1010.6 - 0.2 - Partly cloudy 10 - - - -
23/02:00pm 21.5 WSW 11 17 1010.4 - 0.2 - Partly cloudy 10 - - - -
23/01:30pm 21.3 W 12 19 1010.4 - 0.2 - Partly cloudy 10 - - - -
23/01:00pm 22.0 W 14 21 1010.2 - 0.2 - Partly cloudy 10 - - - -
23/12:30pm 21.6 W 16 26 1009.8 - 0.2 - - 10 - - - -
23/12:27pm 21.5 W 15 26 1009.9 - 0.2 - - 10 - - - -
23/12:00pm 19.1 SE 8 11 1010.0 - 0.2 - - 10 - - - -
23/11:30am 18.7 ESE 6 10 1010.2 - 0.2 - - 10 - - - -
23/11:00am 17.8 S 4 7 1010.9 - 0.2 - - 10 - - - -
23/10:30am 15.9 CALM 0 0 1011.2 - 0.2 - Partly cloudy 10 - - - -
23/10:00am 15.1 SW 7 11 1011.5 - 0.2 - Partly cloudy 10 - - - -
23/09:30am 16.4 SSE 5 10 1010.7 - 0.0 - Partly cloudy 10 - - - -
23/09:00am 15.0 NNW 1 5 1009.7 - 0.0 - Cloudy 10 - - - -
23/08:30am 13.6 CALM 0 0 1009.6 - 0.0 - Partly cloudy 10 - - - -
23/08:00am 13.2 SW 4 6 1009.4 - 0.0 - Cloudy 10 - - - -
23/07:30am 14.1 NW 7 13 1009.5 - 0.0 - Partly cloudy 10 - - - -
23/07:00am 13.4 N 5 9 1009.5 - 0.0 - - 10 - - - -
23/06:30am 12.7 NNW 2 11 1009.7 - 0.0 - - 10 - - - -
23/06:00am 11.5 NW 4 7 1010.1 - 0.0 - Cloudy 10 - - - -
23/05:30am 10.7 SSW 5 7 1010.1 - 0.0 - - 10 - - - -
23/05:00am 10.3 CALM 0 0 1010.2 - 0.0 - - 10 - - - -
23/04:30am 9.9 CALM 0 0 1010.6 - 0.0 - - 10 - - - -
23/04:00am 9.9 CALM 0 0 1011.1 - 0.0 - - 10 - - - -
23/03:30am 9.8 CALM 0 0 1011.5 - 0.0 - - 10 - - - -
23/03:00am 9.5 CALM 0 0 1012.1 - 0.0 - - 10 - - - -
23/02:30am 9.6 CALM 0 0 1012.4 - 0.0 - - 10 - - - -
23/02:00am 9.3 CALM 0 3 1012.7 - 0.0 - - 10 - - - -
23/01:30am 9.3 S 3 5 1013.0 - 0.0 - - 10 - - - -
23/01:00am 9.4 SSW 4 5 1013.6 - 0.0 - - 10 - - - -
23/12:30am 9.8 CALM 0 0 1013.9 - 0.0 - - 10 - - - -
23/12:00am 10.0 SW 3 6 1014.2 - 0.0 - - 10 - - - -
 
Date/Time
EST
Temp

°C
Wind Pressure Rain
since 9am
mm
Weather Cloud Vis
km
Sea
Height
m
Swell
Dir
 
Speed
knots
Gust
knots
hPa Trend Height
m
Period
s
Dir
22/11:30pm 9.8 CALM 0 0 1014.6 - 0.0 - - 4 - - - -
22/11:23pm 10.2 WSW 1 4 1014.6 - 0.0 - - 5 - - - -
22/11:21pm 10.4 WSW 2 5 1014.6 - 0.0 - - 7 - - - -
22/11:00pm 10.2 CALM 0 0 1014.7 - 0.0 - - 2 - - - -
22/10:30pm 10.2 CALM 0 0 1015.0 - 0.0 - - 3 - - - -
22/10:10pm 10.5 CALM 0 0 1015.2 - 0.0 - - 5 - - - -
22/10:06pm 10.8 CALM 0 0 1015.3 - 0.0 - - 8 - - - -
22/10:00pm 11.8 CALM 0 0 1015.3 - 0.0 - - 8 - - - -
22/09:30pm 10.6 CALM 0 0 1015.5 - 0.0 - - 4 - - - -
22/09:23pm 11.0 CALM 0 0 1015.7 - 0.0 - - 5 - - - -
22/09:02pm 11.4 CALM 0 0 1015.7 - 0.0 - - 6 - - - -
22/09:00pm 12.0 CALM 0 0 1015.7 - 0.0 - - 6 - - - -
22/08:30pm 11.9 CALM 0 0 1016.0 - 0.0 - - 0.5 - - - -
22/08:00pm 11.7 CALM 0 0 1016.0 - 0.0 - - 0.9 - - - -
22/07:49pm 11.9 CALM 0 0 1016.1 - 0.0 - - 5 - - - -
22/07:48pm 12.1 CALM 0 0 1016.1 - 0.0 - - 6 - - - -
22/07:30pm 12.3 CALM 0 0 1016.2 - 0.0 - - 5 - - - -
22/07:28pm 12.6 CALM 0 0 1016.2 - 0.0 - - 5 - - - -
22/07:00pm 13.3 CALM 0 0 1016.3 - 0.0 - - 6 - - - -
22/06:30pm 13.9 WNW 4 6 1016.3 - 0.0 - - 10 - - - -
22/06:00pm 15.0 CALM 0 0 1016.4 - 0.0 - - 10 - - - -
22/05:30pm 15.5 CALM 0 0 1016.4 - 0.0 - - 10 - - - -
22/05:00pm 16.8 CALM 0 0 1016.2 - 0.0 - - 10 - - - -
22/04:30pm 19.3 CALM 0 0 1016.4 - 0.0 - - 10 - - - -
22/04:00pm 20.3 CALM 0 0 1016.7 - 0.0 - - 10 - - - -
22/03:30pm 21.1 NNE 2 5 1016.8 - 0.0 - - 10 - - - -
22/03:00pm 20.3 NNE 5 7 1017.0 - 0.0 - - 10 - - - -
22/02:30pm 20.5 NE 6 9 1017.1 - 0.0 - - 10 - - - -
22/02:00pm 20.4 ENE 6 9 1017.4 - 0.0 - - 10 - - - -

Other Formats:

Comma delimited format used in spreadsheet applications
http://www.bom.gov.au/fwo/IDN60701/IDN60701.95929.axf

JavaScript Object Notation format (JSON) in row-major order
http://www.bom.gov.au/fwo/IDN60701/IDN60701.95929.json